»·PEaware :: UAL1399 KLAS-KPHX

UAL1399 :: KLAS-KPHX

FLIGHT INFORMATION

Flight Status: Arrived
Operator:
United Airlines
More flights by this operator :: More flights under this callsign
Pilot: David C. (16084)
Aircraft: AIRBUS A320
(A320)
More flights by this aircraft type
Origin: KLAS McCarran Intl
United States
Destination: KPHX Phoenix Sky Harbor Intl
United States
More flights between these airports :: More routes between these airports
Route: PRFUM4 PRFUM WOTRO BRUSR1
File this flight plan on PilotEdge
Remarks:
Altitude:
(Current/Filed)
29,000ft
Speed:
(Current/Filed)
487kts
Departed: 02-Aug-18 12:02 PM
Arrived: 02-Aug-18 12:47 PM
Distance/Time
Traveled:
222nm/0:44
Distance/Time
To Go:
Arrived

Flight Plot

Page will automatically refresh every two minutes.

Flight plan parsing failed; only flown route is shown


Map Options




Map Legend


Flown Route
Filed Route
Departure Airport
Arrival Airport
Navaid (VOR, NDB)
Fix

Horizontal Profiles

Position Reports

Time Latitude Longitude Heading Altitude Ground
Speed
02-Aug-18 11:32 36.082537 -115.140293 88 2190ft 0kts
02-Aug-18 11:33 36.082537 -115.140293 88 2190ft 0kts
02-Aug-18 11:34 36.082537 -115.140293 88 2190ft 0kts
02-Aug-18 11:35 36.082537 -115.140293 88 2190ft 0kts
02-Aug-18 11:36 36.082537 -115.140293 88 2190ft 0kts
02-Aug-18 11:37 36.082537 -115.140293 88 2190ft 0kts
02-Aug-18 11:38 36.082537 -115.140293 88 2190ft 0kts
02-Aug-18 11:39 36.082537 -115.140293 88 2190ft 0kts
02-Aug-18 11:40 36.082537 -115.140293 88 2190ft 0kts
02-Aug-18 11:41 36.082537 -115.140293 88 2190ft 0kts
02-Aug-18 11:42 36.082537 -115.140293 88 2190ft 0kts
02-Aug-18 11:43 36.082537 -115.140294 88 2190ft 0kts
02-Aug-18 11:44 36.082528 -115.140814 88 2190ft 2kts
02-Aug-18 11:45 36.082837 -115.141378 166 2190ft 2kts
02-Aug-18 11:46 36.083002 -115.141394 181 2190ft 0kts
02-Aug-18 11:47 36.083002 -115.141394 181 2190ft 0kts
02-Aug-18 11:48 36.083002 -115.141394 181 2190ft 0kts
02-Aug-18 11:49 36.083002 -115.141394 181 2190ft 0kts
02-Aug-18 11:50 36.083002 -115.141394 181 2190ft 0kts
02-Aug-18 11:51 36.083002 -115.141394 181 2190ft 0kts
02-Aug-18 11:52 36.083002 -115.141394 181 2190ft 0kts
02-Aug-18 11:53 36.083002 -115.141394 181 2190ft 0kts
02-Aug-18 11:54 36.083002 -115.141394 181 2190ft 0kts
02-Aug-18 11:55 36.083002 -115.141394 181 2190ft 0kts
02-Aug-18 11:56 36.082957 -115.141396 181 2190ft 3kts
02-Aug-18 11:57 36.078863 -115.140510 134 2190ft 20kts
02-Aug-18 11:58 36.078261 -115.133100 89 2190ft 24kts
02-Aug-18 11:59 36.078258 -115.124534 91 2190ft 20kts
02-Aug-18 12:00 36.077495 -115.121488 141 2190ft 0kts
02-Aug-18 12:01 36.077495 -115.121488 141 2190ft 0kts
02-Aug-18 12:02 36.077314 -115.121347 153 2190ft 7kts
02-Aug-18 12:03 36.076418 -115.145936 267 2215ft 191kts
02-Aug-18 12:04 36.076680 -115.218025 266 5115ft 221kts
02-Aug-18 12:05 36.039312 -115.270937 199 7007ft 263kts
02-Aug-18 12:06 35.967658 -115.298823 176 7039ft 275kts
02-Aug-18 12:07 35.892991 -115.272022 162 9556ft 290kts
02-Aug-18 12:08 35.847293 -115.185005 108 11534ft 358kts
02-Aug-18 12:09 35.822465 -115.060250 89 13817ft 387kts
02-Aug-18 12:10 35.832498 -114.925690 86 16158ft 404kts
02-Aug-18 12:11 35.842929 -114.785658 86 18386ft 417kts
02-Aug-18 12:12 35.852259 -114.637812 94 19019ft 457kts
02-Aug-18 12:13 35.802049 -114.495903 125 19020ft 458kts
02-Aug-18 12:14 35.732262 -114.364438 125 19135ft 459kts
02-Aug-18 12:15 35.664444 -114.236978 126 22003ft 435kts
02-Aug-18 12:16 35.598246 -114.113257 126 24068ft 439kts
02-Aug-18 12:17 35.530174 -113.986465 126 25729ft 450kts
02-Aug-18 12:18 35.460426 -113.857006 126 27229ft 460kts
02-Aug-18 12:19 35.389119 -113.725159 126 28588ft 469kts
02-Aug-18 12:20 35.316100 -113.590689 126 29158ft 484kts
02-Aug-18 12:21 35.241147 -113.453123 126 29162ft 487kts
02-Aug-18 12:22 35.166576 -113.316801 127 29161ft 486kts
02-Aug-18 12:23 35.091778 -113.179751 127 29210ft 485kts
02-Aug-18 12:24 35.016502 -113.043185 127 29291ft 485kts
02-Aug-18 12:25 34.940941 -112.906912 125 29278ft 487kts
02-Aug-18 12:26 34.866267 -112.772724 125 29266ft 489kts
02-Aug-18 12:27 34.791071 -112.638084 124 26445ft 487kts
02-Aug-18 12:28 34.714692 -112.502593 127 25181ft 494kts
02-Aug-18 12:29 34.615625 -112.395146 141 22529ft 473kts
02-Aug-18 12:30 34.519200 -112.300942 142 21335ft 421kts
02-Aug-18 12:31 34.429825 -112.225873 167 20285ft 373kts
02-Aug-18 12:32 34.330008 -112.199982 169 18295ft 362kts
02-Aug-18 12:33 34.233094 -112.174926 168 16301ft 353kts
02-Aug-18 12:34 34.139505 -112.150771 168 14264ft 346kts
02-Aug-18 12:35 34.049840 -112.141045 186 13107ft 315kts
02-Aug-18 12:36 33.963791 -112.150725 185 11454ft 308kts
02-Aug-18 12:37 33.880566 -112.162932 190 9928ft 298kts
02-Aug-18 12:38 33.800173 -112.179951 189 8458ft 289kts
02-Aug-18 12:39 33.725579 -112.195689 189 7721ft 260kts
02-Aug-18 12:40 33.660767 -112.209352 189 7126ft 237kts
02-Aug-18 12:41 33.599097 -112.222377 190 6208ft 237kts
02-Aug-18 12:42 33.534341 -112.236264 190 5384ft 231kts
02-Aug-18 12:43 33.472792 -112.221645 141 3793ft 240kts
02-Aug-18 12:44 33.441592 -112.162279 90 3019ft 176kts
02-Aug-18 12:45 33.440994 -112.105181 89 2440ft 147kts
02-Aug-18 12:46 33.440920 -112.058005 89 1686ft 140kts
02-Aug-18 12:47 33.440930 -112.013540 89 1143ft 90kts
02-Aug-18 12:48 33.440301 -112.004704 153 1143ft 0kts
02-Aug-18 12:49 33.437183 -112.003818 182 1143ft 21kts
02-Aug-18 12:50 33.432893 -112.005978 270 1143ft 20kts
02-Aug-18 12:51 33.433559 -112.012427 339 1143ft 10kts
02-Aug-18 12:52 33.433949 -112.013281 284 1143ft 0kts

Navigation Log

Ident Type
Flight plan parsing failed, navigation log unavailable